Time,TemperatureF,DewpointF,PressureIn,WindDirection,WindDirectionDegrees,WindSpeedMPH,WindSpeedGustMPH,Humidity,HourlyPrecipIn,Conditions,Clouds,dailyrainin,SoftwareType,DateUTC
2013-04-11 00:02:00,40.0,37.0,-100.00,NNE,20,12.0,14.0,89,-99.99,,,-99.99,,2013-04-11 00:02:00,
2013-04-11 00:12:00,40.0,37.0,-100.00,NNE,20,12.0,14.0,89,-99.99,,,-99.99,,2013-04-11 00:12:00,
2013-04-11 00:22:00,40.0,37.0,-100.00,NE,40,16.0,20.0,89,-99.99,,,-99.99,,2013-04-11 00:22:00,
2013-04-11 00:32:00,40.0,37.0,-100.00,NNE,30,7.0,10.0,89,-99.99,,,-99.99,,2013-04-11 00:32:00,
2013-04-11 00:42:00,40.0,37.0,-100.00,NNE,30,7.0,10.0,89,-99.99,,,-99.99,,2013-04-11 00:42:00,
2013-04-11 00:53:00,40.0,37.0,-100.00,East,80,10.0,12.0,89,-99.99,,,-99.99,,2013-04-11 00:53:00,
2013-04-11 01:02:00,40.0,37.0,-100.00,East,80,10.0,12.0,89,-99.99,,,-99.99,,2013-04-11 01:02:00,
2013-04-11 01:12:00,39.0,37.0,-100.00,ENE,75,16.0,21.0,90,-99.99,,,-99.99,,2013-04-11 01:12:00,
2013-04-11 01:22:00,40.0,37.0,-100.00,East,80,16.0,22.0,90,-99.99,,,-99.99,,2013-04-11 01:22:00,
2013-04-11 01:32:00,40.0,37.0,-100.00,East,95,9.0,11.0,90,-99.99,,,-99.99,,2013-04-11 01:32:00,
2013-04-11 01:42:00,40.0,37.0,-100.00,East,95,9.0,11.0,90,-99.99,,,-99.99,,2013-04-11 01:42:00,
2013-04-11 01:52:00,40.0,37.0,-100.00,East,90,4.0,5.0,91,-99.99,,,-99.99,,2013-04-11 01:52:00,
2013-04-11 02:03:00,40.0,37.0,-100.00,East,90,4.0,5.0,91,-99.99,,,-99.99,,2013-04-11 02:03:00,
2013-04-11 02:12:00,40.0,37.0,-100.00,East,90,4.0,5.0,91,-99.99,,,-99.99,,2013-04-11 02:12:00,
2013-04-11 02:22:00,40.0,37.0,-100.00,ENE,70,6.0,6.0,92,-99.99,,,-99.99,,2013-04-11 02:22:00,
2013-04-11 02:32:00,39.0,38.0,-100.00,ENE,65,7.0,9.0,93,-99.99,,,-99.99,,2013-04-11 02:32:00,
2013-04-11 02:42:00,39.0,38.0,-100.00,ENE,65,7.0,9.0,93,-99.99,,,-99.99,,2013-04-11 02:42:00,
2013-04-11 02:52:00,39.0,38.0,-100.00,ENE,65,7.0,9.0,94,-99.99,,,-99.99,,2013-04-11 02:52:00,
2013-04-11 03:02:00,39.0,38.0,-100.00,ENE,65,7.0,9.0,94,-99.99,,,-99.99,,2013-04-11 03:02:00,
2013-04-11 03:12:00,39.0,38.0,-100.00,ENE,75,6.0,8.0,95,-99.99,,,-99.99,,2013-04-11 03:12:00,
2013-04-11 03:22:00,39.0,38.0,-100.00,NE,40,6.0,7.0,95,-99.99,,,-99.99,,2013-04-11 03:22:00,
2013-04-11 03:33:00,39.0,38.0,-100.00,ENE,75,5.0,6.0,95,-99.99,,,-99.99,,2013-04-11 03:33:00,
2013-04-11 03:43:00,39.0,38.0,-100.00,ENE,75,5.0,6.0,95,-99.99,,,-99.99,,2013-04-11 03:43:00,
2013-04-11 03:53:00,39.0,38.0,-100.00,NE,55,9.0,11.0,95,-99.99,,,-99.99,,2013-04-11 03:53:00,
2013-04-11 04:03:00,39.0,38.0,-100.00,NE,55,9.0,11.0,95,-99.99,,,-99.99,,2013-04-11 04:03:00,
2013-04-11 04:12:00,39.0,38.0,-100.00,ENE,75,6.0,8.0,95,-99.99,,,-99.99,,2013-04-11 04:12:00,
2013-04-11 04:22:00,39.0,38.0,-100.00,East,80,7.0,8.0,95,-99.99,,,-99.99,,2013-04-11 04:22:00,
2013-04-11 04:33:00,39.0,38.0,-100.00,ENE,75,6.0,8.0,95,-99.99,,,-99.99,,2013-04-11 04:33:00,
2013-04-11 04:42:00,39.0,38.0,-100.00,East,85,4.0,5.0,95,-99.99,,,-99.99,,2013-04-11 04:42:00,
2013-04-11 04:52:00,39.0,38.0,-100.00,South,170,2.0,2.0,95,-99.99,,,-99.99,,2013-04-11 04:52:00,
2013-04-11 05:02:00,39.0,38.0,-100.00,South,170,2.0,2.0,95,-99.99,,,-99.99,,2013-04-11 05:02:00,
2013-04-11 05:12:00,39.0,38.0,-100.00,East,100,1.0,1.0,95,-99.99,,,-99.99,,2013-04-11 05:12:00,
2013-04-11 05:22:00,39.0,38.0,-100.00,East,90,2.0,2.0,95,-99.99,,,-99.99,,2013-04-11 05:22:00,
2013-04-11 05:32:00,39.0,38.0,-100.00,East,85,2.0,2.0,95,-99.99,,,-99.99,,2013-04-11 05:32:00,
2013-04-11 05:42:00,39.0,38.0,-100.00,East,85,2.0,2.0,95,-99.99,,,-99.99,,2013-04-11 05:42:00,
2013-04-11 05:52:00,39.0,38.0,-100.00,East,90,6.0,9.0,95,-99.99,,,-99.99,,2013-04-11 05:52:00,
2013-04-11 06:02:00,39.0,38.0,-100.00,East,90,6.0,9.0,95,-99.99,,,-99.99,,2013-04-11 06:02:00,
2013-04-11 06:12:00,39.0,38.0,-100.00,East,80,12.0,12.0,95,-99.99,,,-99.99,,2013-04-11 06:12:00,
2013-04-11 06:22:00,39.0,38.0,-100.00,East,90,6.0,7.0,95,-99.99,,,-99.99,,2013-04-11 06:22:00,
2013-04-11 06:32:00,39.0,38.0,-100.00,East,85,6.0,9.0,95,-99.99,,,-99.99,,2013-04-11 06:32:00,
2013-04-11 06:42:00,39.0,37.0,-100.00,East,85,6.0,7.0,95,-99.99,,,-99.99,,2013-04-11 06:42:00,
2013-04-11 06:52:00,39.0,38.0,-100.00,East,95,3.0,4.0,95,-99.99,,,-99.99,,2013-04-11 06:52:00,
2013-04-11 07:02:00,39.0,38.0,-100.00,East,95,3.0,4.0,95,-99.99,,,-99.99,,2013-04-11 07:02:00,
2013-04-11 07:12:00,39.0,38.0,-100.00,SE,135,2.0,2.0,95,-99.99,,,-99.99,,2013-04-11 07:12:00,
2013-04-11 07:22:00,39.0,38.0,-100.00,NE,40,0.0,1.0,95,-99.99,,,-99.99,,2013-04-11 07:22:00,
2013-04-11 07:32:00,39.0,37.0,-100.00,NNW,340,0.0,0.0,95,-99.99,,,-99.99,,2013-04-11 07:32:00,
2013-04-11 07:42:00,39.0,37.0,-100.00,NNW,340,0.0,0.0,95,-99.99,,,-99.99,,2013-04-11 07:42:00,
2013-04-11 07:52:00,39.0,37.0,-100.00,WNW,285,0.0,1.0,95,-99.99,,,-99.99,,2013-04-11 07:52:00,
2013-04-11 08:02:00,39.0,37.0,-100.00,WNW,285,0.0,1.0,95,-99.99,,,-99.99,,2013-04-11 08:02:00,
2013-04-11 08:12:00,38.0,37.0,-100.00,WNW,285,1.0,1.0,95,-99.99,,,-99.99,,2013-04-11 08:12:00,
2013-04-11 08:22:00,39.0,37.0,-100.00,WSW,245,2.0,2.0,95,-99.99,,,-99.99,,2013-04-11 08:22:00,
2013-04-11 08:32:00,39.0,37.0,-100.00,SW,215,1.0,1.0,95,-99.99,,,-99.99,,2013-04-11 08:32:00,
2013-04-11 08:42:00,39.0,37.0,-100.00,SW,215,1.0,1.0,95,-99.99,,,-99.99,,2013-04-11 08:42:00,
2013-04-11 08:52:00,39.0,37.0,-100.00,SSW,210,0.0,0.0,95,-99.99,,,-99.99,,2013-04-11 08:52:00,
2013-04-11 09:02:00,39.0,37.0,-100.00,SSW,210,0.0,0.0,95,-99.99,,,-99.99,,2013-04-11 09:02:00,
2013-04-11 09:12:00,39.0,37.0,-100.00,NW,305,0.0,0.0,95,-99.99,,,-99.99,,2013-04-11 09:12:00,
2013-04-11 09:22:00,39.0,37.0,-100.00,WNW,290,2.0,2.0,95,-99.99,,,-99.99,,2013-04-11 09:22:00,
2013-04-11 09:33:00,39.0,37.0,-100.00,NW,305,3.0,4.0,95,-99.99,,,-99.99,,2013-04-11 09:33:00,
2013-04-11 09:42:00,39.0,37.0,-100.00,NW,305,3.0,4.0,95,-99.99,,,-99.99,,2013-04-11 09:42:00,
2013-04-11 09:52:00,39.0,37.0,-100.00,NW,305,3.0,4.0,95,-99.99,,,-99.99,,2013-04-11 09:52:00,
2013-04-11 10:02:00,39.0,37.0,-100.00,NW,325,6.0,7.0,95,-99.99,,,-99.99,,2013-04-11 10:02:00,
2013-04-11 10:12:00,39.0,37.0,-100.00,NW,310,6.0,7.0,95,-99.99,,,-99.99,,2013-04-11 10:12:00,
2013-04-11 10:23:00,39.0,37.0,-100.00,North,355,5.0,6.0,95,-99.99,,,-99.99,,2013-04-11 10:23:00,
2013-04-11 10:32:00,39.0,37.0,-100.00,NNE,15,2.0,4.0,95,-99.99,,,-99.99,,2013-04-11 10:32:00,
2013-04-11 10:42:00,39.0,37.0,-100.00,NNE,15,2.0,4.0,95,-99.99,,,-99.99,,2013-04-11 10:42:00,
2013-04-11 10:52:00,39.0,37.0,-100.00,NNE,15,2.0,4.0,95,-99.99,,,-99.99,,2013-04-11 10:52:00,
2013-04-11 11:02:00,39.0,37.0,-100.00,NNE,15,2.0,4.0,95,-99.99,,,-99.99,,2013-04-11 11:02:00,
2013-04-11 11:12:00,39.0,37.0,-100.00,ESE,105,4.0,4.0,95,-99.99,,,-99.99,,2013-04-11 11:12:00,
2013-04-11 11:22:00,39.0,37.0,-100.00,East,100,4.0,5.0,95,-99.99,,,-99.99,,2013-04-11 11:22:00,
2013-04-11 11:32:00,38.0,37.0,-100.00,East,100,2.0,4.0,95,-99.99,,,-99.99,,2013-04-11 11:32:00,
2013-04-11 11:42:00,38.0,37.0,-100.00,East,100,2.0,4.0,95,-99.99,,,-99.99,,2013-04-11 11:42:00,
2013-04-11 11:52:00,38.0,37.0,-100.00,SE,130,1.0,2.0,95,-99.99,,,-99.99,,2013-04-11 11:52:00,
2013-04-11 12:02:00,38.0,37.0,-100.00,SE,130,1.0,2.0,95,-99.99,,,-99.99,,2013-04-11 12:02:00,
2013-04-11 12:12:00,38.0,37.0,-100.00,ESE,120,2.0,3.0,95,-99.99,,,-99.99,,2013-04-11 12:12:00,
2013-04-11 12:22:00,38.0,37.0,-100.00,SE,130,2.0,2.0,95,-99.99,,,-99.99,,2013-04-11 12:22:00,
2013-04-11 12:32:00,38.0,37.0,-100.00,SSE,150,2.0,2.0,95,-99.99,,,-99.99,,2013-04-11 12:32:00,
2013-04-11 12:42:00,38.0,37.0,-100.00,SSE,150,2.0,2.0,95,-99.99,,,-99.99,,2013-04-11 12:42:00,
2013-04-11 12:52:00,39.0,37.0,-100.00,SSW,205,4.0,5.0,95,-99.99,,,-99.99,,2013-04-11 12:52:00,
2013-04-11 13:02:00,39.0,37.0,-100.00,SSW,205,4.0,5.0,95,-99.99,,,-99.99,,2013-04-11 13:02:00,
2013-04-11 13:12:00,39.0,38.0,-100.00,SW,230,4.0,4.0,95,-99.99,,,-99.99,,2013-04-11 13:12:00,
2013-04-11 13:22:00,39.0,37.0,-100.00,SSW,210,5.0,6.0,95,-99.99,,,-99.99,,2013-04-11 13:22:00,
2013-04-11 13:32:00,39.0,38.0,-100.00,SW,235,6.0,7.0,95,-99.99,,,-99.99,,2013-04-11 13:32:00,
2013-04-11 13:43:00,39.0,38.0,-100.00,SW,235,6.0,7.0,95,-99.99,,,-99.99,,2013-04-11 13:43:00,
2013-04-11 13:52:00,39.0,38.0,-100.00,SW,230,4.0,5.0,95,-99.99,,,-99.99,,2013-04-11 13:52:00,
2013-04-11 14:02:00,39.0,38.0,-100.00,SW,230,4.0,5.0,95,-99.99,,,-99.99,,2013-04-11 14:02:00,
2013-04-11 14:12:00,39.0,37.0,-100.00,WSW,245,7.0,10.0,95,-99.99,,,-99.99,,2013-04-11 14:12:00,
2013-04-11 14:22:00,39.0,38.0,-100.00,SW,230,6.0,8.0,95,-99.99,,,-99.99,,2013-04-11 14:22:00,
2013-04-11 14:42:00,39.0,38.0,-100.00,West,275,6.0,8.0,95,-99.99,,,-99.99,,2013-04-11 14:42:00,
2013-04-11 14:52:00,39.0,37.0,-100.00,SW,235,10.0,12.0,95,-99.99,,,-99.99,,2013-04-11 14:52:00,
2013-04-11 15:02:00,39.0,37.0,-100.00,SW,235,10.0,12.0,95,-99.99,,,-99.99,,2013-04-11 15:02:00,
2013-04-11 15:12:00,38.0,37.0,-100.00,SW,235,11.0,13.0,95,-99.99,,,-99.99,,2013-04-11 15:12:00,
2013-04-11 15:22:00,39.0,37.0,-100.00,WSW,255,10.0,12.0,95,-99.99,,,-99.99,,2013-04-11 15:22:00,
2013-04-11 15:32:00,39.0,36.0,-100.00,West,270,11.0,12.0,91,-99.99,,,-99.99,,2013-04-11 15:32:00,
2013-04-11 15:43:00,39.0,36.0,-100.00,West,270,11.0,12.0,91,-99.99,,,-99.99,,2013-04-11 15:43:00,
2013-04-11 15:52:00,40.0,36.0,-100.00,WSW,245,6.0,7.0,87,-99.99,,,-99.99,,2013-04-11 15:52:00,
2013-04-11 16:02:00,40.0,36.0,-100.00,WSW,245,6.0,7.0,87,-99.99,,,-99.99,,2013-04-11 16:02:00,
2013-04-11 16:12:00,40.0,36.0,-100.00,SW,225,9.0,12.0,84,-99.99,,,-99.99,,2013-04-11 16:12:00,
2013-04-11 16:22:00,40.0,34.0,-100.00,West,265,7.0,10.0,82,-99.99,,,-99.99,,2013-04-11 16:22:00,
2013-04-11 16:32:00,40.0,34.0,-100.00,WSW,245,10.0,13.0,80,-99.99,,,-99.99,,2013-04-11 16:32:00,
2013-04-11 16:41:00,40.0,34.0,-100.00,WSW,245,10.0,13.0,80,-99.99,,,-99.99,,2013-04-11 16:41:00,
2013-04-11 16:52:00,39.0,33.0,-100.00,West,270,11.0,11.0,79,-99.99,,,-99.99,,2013-04-11 16:52:00,
2013-04-11 17:02:00,39.0,33.0,-100.00,West,270,11.0,11.0,79,-99.99,,,-99.99,,2013-04-11 17:02:00,
2013-04-11 17:12:00,38.0,32.0,-100.00,WSW,255,9.0,12.0,79,-99.99,,,-99.99,,2013-04-11 17:12:00,
2013-04-11 17:23:00,38.0,32.0,-100.00,West,260,12.0,14.0,80,-99.99,,,-99.99,,2013-04-11 17:23:00,
2013-04-11 17:32:00,38.0,33.0,-100.00,West,260,7.0,11.0,83,-99.99,,,-99.99,,2013-04-11 17:32:00,
2013-04-11 17:42:00,38.0,33.0,-100.00,West,260,7.0,11.0,83,-99.99,,,-99.99,,2013-04-11 17:42:00,
2013-04-11 17:52:00,38.0,34.0,-100.00,West,260,9.0,11.0,85,-99.99,,,-99.99,,2013-04-11 17:52:00,
2013-04-11 18:03:00,38.0,34.0,-100.00,West,260,9.0,11.0,85,-99.99,,,-99.99,,2013-04-11 18:03:00,
2013-04-11 18:13:00,38.0,34.0,-100.00,West,270,12.0,17.0,86,-99.99,,,-99.99,,2013-04-11 18:13:00,
2013-04-11 18:22:00,38.0,34.0,-100.00,WSW,245,10.0,14.0,86,-99.99,,,-99.99,,2013-04-11 18:22:00,
2013-04-11 18:33:00,37.0,34.0,-100.00,WSW,250,14.0,18.0,86,-99.99,,,-99.99,,2013-04-11 18:33:00,
2013-04-11 18:42:00,37.0,34.0,-100.00,WSW,250,14.0,18.0,86,-99.99,,,-99.99,,2013-04-11 18:42:00,
2013-04-11 18:52:00,37.0,33.0,-100.00,WSW,250,9.0,11.0,88,-99.99,,,-99.99,,2013-04-11 18:52:00,
2013-04-11 19:03:00,37.0,33.0,-100.00,WSW,250,9.0,11.0,88,-99.99,,,-99.99,,2013-04-11 19:03:00,
2013-04-11 19:13:00,36.0,33.0,-100.00,WSW,245,12.0,14.0,88,-99.99,,,-99.99,,2013-04-11 19:13:00,
2013-04-11 19:22:00,36.0,33.0,-100.00,WSW,255,12.0,14.0,89,-99.99,,,-99.99,,2013-04-11 19:22:00,
2013-04-11 19:32:00,36.0,34.0,-100.00,West,270,9.0,17.0,90,-99.99,,,-99.99,,2013-04-11 19:32:00,
2013-04-11 19:42:00,36.0,34.0,-100.00,West,270,9.0,17.0,90,-99.99,,,-99.99,,2013-04-11 19:42:00,
2013-04-11 19:52:00,36.0,33.0,-100.00,WSW,255,12.0,14.0,90,-99.99,,,-99.99,,2013-04-11 19:52:00,
2013-04-11 20:02:00,36.0,33.0,-100.00,WSW,255,12.0,14.0,90,-99.99,,,-99.99,,2013-04-11 20:02:00,
2013-04-11 20:13:00,35.0,32.0,-100.00,WSW,250,16.0,19.0,89,-99.99,,,-99.99,,2013-04-11 20:13:00,
2013-04-11 20:22:00,36.0,33.0,-100.00,WSW,250,11.0,16.0,88,-99.99,,,-99.99,,2013-04-11 20:22:00,
2013-04-11 20:33:00,37.0,32.0,-100.00,West,270,9.0,11.0,82,-99.99,,,-99.99,,2013-04-11 20:33:00,
2013-04-11 20:42:00,37.0,32.0,-100.00,West,270,9.0,11.0,82,-99.99,,,-99.99,,2013-04-11 20:42:00,
2013-04-11 20:52:00,37.0,32.0,-100.00,WSW,245,7.0,9.0,81,-99.99,,,-99.99,,2013-04-11 20:52:00,
2013-04-11 21:02:00,37.0,32.0,-100.00,WSW,245,7.0,9.0,81,-99.99,,,-99.99,,2013-04-11 21:02:00,
2013-04-11 21:12:00,38.0,32.0,-100.00,West,275,7.0,11.0,79,-99.99,,,-99.99,,2013-04-11 21:12:00,
2013-04-11 21:22:00,38.0,31.0,-100.00,SW,235,7.0,9.0,77,-99.99,,,-99.99,,2013-04-11 21:22:00,
2013-04-11 21:33:00,37.0,30.0,-100.00,WSW,240,7.0,9.0,75,-99.99,,,-99.99,,2013-04-11 21:33:00,
2013-04-11 21:42:00,37.0,30.0,-100.00,WSW,240,7.0,9.0,75,-99.99,,,-99.99,,2013-04-11 21:42:00,
2013-04-11 21:53:00,36.0,29.0,-100.00,WSW,250,11.0,16.0,74,-99.99,,,-99.99,,2013-04-11 21:53:00,
2013-04-11 22:03:00,36.0,29.0,-100.00,WSW,250,11.0,16.0,74,-99.99,,,-99.99,,2013-04-11 22:03:00,
2013-04-11 22:13:00,35.0,30.0,-100.00,WSW,240,9.0,17.0,81,-99.99,,,-99.99,,2013-04-11 22:13:00,
2013-04-11 22:23:00,36.0,31.0,-100.00,SW,235,10.0,12.0,83,-99.99,,,-99.99,,2013-04-11 22:23:00,
2013-04-11 22:33:00,36.0,30.0,-100.00,SW,235,14.0,16.0,78,-99.99,,,-99.99,,2013-04-11 22:33:00,
2013-04-11 22:44:00,36.0,30.0,-100.00,SW,235,14.0,16.0,78,-99.99,,,-99.99,,2013-04-11 22:44:00,
2013-04-11 22:52:00,37.0,29.0,-100.00,WSW,255,11.0,14.0,75,-99.99,,,-99.99,,2013-04-11 22:52:00,
2013-04-11 23:03:00,37.0,29.0,-100.00,WSW,255,11.0,14.0,75,-99.99,,,-99.99,,2013-04-11 23:03:00,
2013-04-11 23:12:00,37.0,29.0,-100.00,WSW,250,11.0,14.0,74,-99.99,,,-99.99,,2013-04-11 23:12:00,
2013-04-11 23:22:00,37.0,29.0,-100.00,SW,235,9.0,12.0,73,-99.99,,,-99.99,,2013-04-11 23:22:00,
2013-04-11 23:32:00,37.0,28.0,-100.00,West,265,11.0,14.0,71,-99.99,,,-99.99,,2013-04-11 23:32:00,
2013-04-11 23:42:00,37.0,28.0,-100.00,West,265,11.0,14.0,71,-99.99,,,-99.99,,2013-04-11 23:42:00,
2013-04-11 23:52:00,37.0,29.0,-100.00,WSW,240,9.0,12.0,74,-99.99,,,-99.99,,2013-04-11 23:52:00,